Time;durP1;ratioP1;P1;durP2;ratioP2;P2;SDS_P1;SDS_P2;PMS_P1;PMS_P2;Temp;Humidity;BMP_temperature;BMP_pressure;BME280_temperature;BME280_humidity;BME280_pressure;Samples;Min_cycle;Max_cycle;Signal;HPM_P1;HPM_P2
2023/02/16 00:00:16;;;;;;;54.53;35.93;;;7.30;72.70;;;;;;6244951;23;20488;-75
2023/02/16 00:02:42;;;;;;;62.25;37.65;;;7.20;72.50;;;;;;6245220;23;20118;-75
2023/02/16 00:05:23;;;;;;;55.77;37.23;;;7.20;72.50;;;;;;6245088;23;20423;-75
2023/02/16 00:07:49;;;;;;;55.27;36.03;;;7.10;72.70;;;;;;6244734;23;20412;-76
2023/02/16 00:10:15;;;;;;;59.90;36.37;;;7.10;73.00;;;;;;6244728;23;20012;-74
2023/02/16 00:15:25;;;;;;;49.87;32.53;;;7.00;73.20;;;;;;6244922;23;20505;-72
2023/02/16 00:17:52;;;;;;;57.90;34.80;;;7.00;73.30;;;;;;6245846;23;20004;-76
2023/02/16 00:20:18;;;;;;;52.17;33.70;;;7.00;73.50;;;;;;6247073;23;20004;-75
2023/02/16 00:22:43;;;;;;;58.60;36.33;;;6.90;73.60;;;;;;6247523;23;20008;-75
2023/02/16 00:25:09;;;;;;;56.40;35.03;;;6.90;73.70;;;;;;6247083;23;20000;-74
2023/02/16 00:27:36;;;;;;;56.07;36.47;;;6.90;73.60;;;;;;6247204;23;20426;-74
2023/02/16 00:30:12;;;;;;;58.97;36.90;;;6.90;73.70;;;;;;6247048;23;20027;-73
2023/02/16 00:32:38;;;;;;;57.13;35.80;;;6.90;73.80;;;;;;6246663;23;20497;-75
2023/02/16 00:35:12;;;;;;;55.83;35.90;;;6.80;73.90;;;;;;6247016;23;20099;-75
2023/02/16 00:37:38;;;;;;;55.60;35.97;;;6.90;74.20;;;;;;6246983;23;20000;-75
2023/02/16 00:40:04;;;;;;;59.40;35.10;;;6.80;74.20;;;;;;6246980;23;20058;-75
2023/02/16 00:42:32;;;;;;;61.73;36.07;;;6.80;74.20;;;;;;6247115;23;20004;-75
2023/02/16 00:44:59;;;;;;;52.37;34.23;;;6.80;74.50;;;;;;6247023;23;20106;-74
2023/02/16 00:47:36;;;;;;;47.53;31.33;;;6.80;74.80;;;;;;6247212;23;20019;-74
2023/02/16 00:50:12;;;;;;;45.20;31.93;;;6.80;75.00;;;;;;6246704;23;20087;-74
2023/02/16 00:52:42;;;;;;;47.83;32.07;;;6.80;74.50;;;;;;6246781;23;20000;-74
2023/02/16 00:55:11;;;;;;;46.80;31.73;;;6.70;74.70;;;;;;6246863;23;20323;-75
2023/02/16 00:57:44;;;;;;;48.70;30.57;;;6.80;74.80;;;;;;6246863;23;20004;-75
2023/02/16 01:00:21;;;;;;;47.90;31.77;;;6.70;74.30;;;;;;6246857;23;20470;-75
2023/02/16 01:02:49;;;;;;;45.00;30.23;;;6.60;74.20;;;;;;6246954;23;20046;-75
2023/02/16 01:05:15;;;;;;;46.47;30.17;;;6.60;74.50;;;;;;6246393;23;20031;-74
2023/02/16 01:13:11;;;;;;;49.80;33.13;;;6.60;75.00;;;;;;6244076;23;20027;-72
2023/02/16 01:15:38;;;;;;;51.40;34.27;;;6.60;74.70;;;;;;6246769;23;20023;-75
2023/02/16 01:18:05;;;;;;;52.90;34.63;;;6.60;74.60;;;;;;6246667;23;20008;-75
2023/02/16 01:20:30;;;;;;;56.20;35.23;;;6.50;74.50;;;;;;6246655;23;20024;-75
2023/02/16 01:22:56;;;;;;;54.37;34.63;;;6.50;74.60;;;;;;6246459;23;20003;-75
2023/02/16 01:25:22;;;;;;;52.57;34.60;;;6.50;74.60;;;;;;6246871;23;20011;-76
2023/02/16 01:27:49;;;;;;;49.43;32.87;;;6.50;74.80;;;;;;6246074;23;20000;-75
2023/02/16 01:30:20;;;;;;;55.40;33.70;;;6.40;74.40;;;;;;6246325;23;20012;-74
2023/02/16 01:32:50;;;;;;;53.37;34.67;;;6.40;74.20;;;;;;6245012;23;20023;-73
2023/02/16 01:35:27;;;;;;;46.80;32.17;;;6.40;74.30;;;;;;6243101;23;20012;-75
2023/02/16 01:37:52;;;;;;;52.77;31.53;;;6.30;74.20;;;;;;6243269;23;20004;-76
2023/02/16 01:40:33;;;;;;;44.20;29.40;;;6.30;74.40;;;;;;6245239;23;20000;-75
2023/02/16 01:43:20;;;;;;;45.17;28.30;;;6.20;74.80;;;;;;6246137;23;20003;-74
2023/02/16 01:45:50;;;;;;;47.90;28.13;;;6.20;74.80;;;;;;6246748;23;20008;-71
2023/02/16 01:48:28;;;;;;;42.70;28.30;;;6.20;75.00;;;;;;6245868;23;20304;-74
2023/02/16 01:51:02;;;;;;;44.03;27.57;;;6.10;75.10;;;;;;6245872;23;20011;-75
2023/02/16 01:53:30;;;;;;;45.57;25.90;;;6.10;75.00;;;;;;6246113;23;20434;-73
2023/02/16 01:56:02;;;;;;;36.93;24.67;;;6.00;74.80;;;;;;6245898;23;20458;-76
2023/02/16 01:58:30;;;;;;;42.10;26.77;;;6.00;74.90;;;;;;6246102;23;20004;-74
2023/02/16 02:00:57;;;;;;;45.53;26.77;;;6.00;75.00;;;;;;6245896;23;20051;-74
2023/02/16 02:06:16;;;;;;;39.70;26.33;;;6.00;75.30;;;;;;6246336;23;20131;-75
2023/02/16 02:08:48;;;;;;;43.45;26.08;;;5.90;75.30;;;;;;6246046;23;20008;-75
2023/02/16 02:11:17;;;;;;;38.03;25.23;;;5.90;75.20;;;;;;6245830;23;20447;-72
2023/02/16 02:14:02;;;;;;;40.07;25.83;;;5.90;75.30;;;;;;6246325;23;20079;-75
2023/02/16 02:16:28;;;;;;;43.27;27.03;;;5.80;75.70;;;;;;6246359;23;20083;-74
2023/02/16 02:18:53;;;;;;;39.43;25.77;;;5.80;75.70;;;;;;6245659;23;20012;-75
2023/02/16 02:24:30;;;;;;;50.13;28.80;;;5.80;76.00;;;;;;6245992;23;20019;-75
2023/02/16 02:27:05;;;;;;;46.70;26.67;;;5.70;76.40;;;;;;6218738;23;20092;-74
2023/02/16 02:29:42;;;;;;;43.40;27.03;;;5.70;76.50;;;;;;6245872;23;20423;-73
2023/02/16 02:32:16;;;;;;;48.60;26.47;;;5.70;76.50;;;;;;6245809;23;20373;-75
2023/02/16 02:35:00;;;;;;;45.80;27.87;;;5.70;76.50;;;;;;6245258;23;20407;-73
2023/02/16 02:37:47;;;;;;;41.77;26.33;;;5.70;76.40;;;;;;6245927;23;20007;-75
2023/02/16 02:40:32;;;;;;;44.87;26.13;;;5.60;76.50;;;;;;6245131;23;20027;-72
2023/02/16 02:43:26;;;;;;;40.67;27.43;;;5.60;77.10;;;;;;6245784;23;20330;-74
2023/02/16 02:45:57;;;;;;;46.23;28.47;;;5.60;76.20;;;;;;6245906;23;20004;-74
2023/02/16 02:48:28;;;;;;;49.50;27.77;;;5.60;76.00;;;;;;6245451;23;20373;-74
2023/02/16 03:00:42;;;;;;;41.97;27.00;;;5.50;76.90;;;;;;6245440;23;20464;-74
2023/02/16 03:03:13;;;;;;;50.67;28.27;;;5.40;76.60;;;;;;6245833;23;20105;-74
2023/02/16 03:05:43;;;;;;;39.67;28.20;;;5.40;76.20;;;;;;6245784;23;20077;-74
2023/02/16 03:08:16;;;;;;;49.40;27.97;;;5.40;76.50;;;;;;6245290;23;20078;-75
2023/02/16 03:13:40;;;;;;;47.97;27.53;;;5.40;76.60;;;;;;6245405;23;20077;-75
2023/02/16 03:16:12;;;;;;;42.73;26.27;;;5.30;76.70;;;;;;6245301;23;20090;-74
2023/02/16 03:29:51;;;;;;;48.93;30.23;;;5.30;76.50;;;;;;6245432;23;20453;-75
2023/02/16 03:32:17;;;;;;;53.53;31.03;;;5.30;75.60;;;;;;6218529;23;20004;-75
2023/02/16 03:34:43;;;;;;;51.77;30.73;;;5.30;75.50;;;;;;6245387;23;20004;-75
2023/02/16 03:37:09;;;;;;;51.00;29.43;;;5.20;75.50;;;;;;6244966;23;20000;-75
2023/02/16 03:40:27;;;;;;;44.13;28.73;;;5.20;75.50;;;;;;6245027;23;20434;-74
2023/02/16 03:42:22;;;;;;;43.07;29.20;;;5.10;75.70;;;;;;6244893;23;20004;-75
2023/02/16 03:44:47;;;;;;;43.13;25.83;;;5.10;75.70;;;;;;6245315;23;20011;-75
2023/02/16 03:47:13;;;;;;;43.07;25.77;;;5.00;75.70;;;;;;6245031;23;20001;-75
2023/02/16 03:49:39;;;;;;;45.30;25.20;;;5.00;75.70;;;;;;6245123;23;20027;-75
2023/02/16 03:52:04;;;;;;;40.63;24.80;;;5.00;75.80;;;;;;6244935;23;20414;-76
2023/02/16 03:54:30;;;;;;;46.03;26.00;;;4.90;75.70;;;;;;6244944;23;20000;-75
2023/02/16 03:56:56;;;;;;;47.50;24.40;;;4.90;75.60;;;;;;6245010;23;19996;-74
2023/02/16 03:59:21;;;;;;;38.20;24.07;;;4.90;75.90;;;;;;6245497;23;20004;-72
2023/02/16 04:01:47;;;;;;;42.40;24.13;;;4.80;75.80;;;;;;6244886;23;20024;-74
2023/02/16 04:04:13;;;;;;;75.70;26.50;;;4.80;75.60;;;;;;6244964;23;20004;-75
2023/02/16 04:06:39;;;;;;;58.00;25.73;;;4.80;75.50;;;;;;6244555;23;20057;-73
2023/02/16 04:09:05;;;;;;;45.97;23.10;;;4.80;76.30;;;;;;6245316;23;20122;-74
2023/02/16 04:14:15;;;;;;;39.47;22.80;;;4.80;75.50;;;;;;6244783;23;20055;-73
2023/02/16 04:16:41;;;;;;;35.53;21.50;;;4.70;75.50;;;;;;6244782;23;19996;-73
2023/02/16 04:19:07;;;;;;;38.20;22.87;;;4.60;75.60;;;;;;6244390;23;20012;-72
2023/02/16 04:21:33;;;;;;;37.10;22.93;;;4.60;75.80;;;;;;6244953;23;20339;-75
2023/02/16 04:23:59;;;;;;;35.13;22.33;;;4.60;75.80;;;;;;6244495;23;20078;-69
2023/02/16 04:26:24;;;;;;;35.67;21.80;;;4.60;75.80;;;;;;6244483;23;20366;-75
2023/02/16 04:28:50;;;;;;;37.80;22.30;;;4.50;76.10;;;;;;6245049;23;20004;-74
2023/02/16 04:31:16;;;;;;;33.67;22.63;;;4.50;76.10;;;;;;6245164;23;20000;-72
2023/02/16 04:33:41;;;;;;;40.67;24.43;;;4.50;76.00;;;;;;6244872;23;20372;-72
2023/02/16 04:36:08;;;;;;;39.17;24.50;;;4.50;76.40;;;;;;6244913;23;20423;-74
2023/02/16 04:38:34;;;;;;;44.60;24.60;;;4.50;76.20;;;;;;6244954;23;20000;-73
2023/02/16 04:40:59;;;;;;;42.13;24.53;;;4.50;76.20;;;;;;6244892;23;20000;-69
2023/02/16 04:43:25;;;;;;;39.77;23.93;;;4.40;76.30;;;;;;6244785;23;20335;-67
2023/02/16 04:45:51;;;;;;;42.17;24.23;;;4.40;76.40;;;;;;6244680;23;20473;-67
2023/02/16 04:48:16;;;;;;;45.20;24.30;;;4.40;76.60;;;;;;6244971;23;20032;-76
2023/02/16 04:50:42;;;;;;;38.60;24.13;;;4.30;76.50;;;;;;6244686;23;20370;-73
2023/02/16 04:53:08;;;;;;;45.20;25.93;;;4.30;76.60;;;;;;6244991;23;20023;-74
2023/02/16 04:55:34;;;;;;;39.17;23.80;;;4.30;76.60;;;;;;6244984;23;20032;-75
2023/02/16 04:57:59;;;;;;;41.60;24.13;;;4.30;76.70;;;;;;6244860;23;20446;-74
2023/02/16 05:00:25;;;;;;;39.77;24.47;;;4.20;76.70;;;;;;6244914;23;20003;-72
2023/02/16 05:02:51;;;;;;;47.97;25.83;;;4.30;76.90;;;;;;6245327;23;20071;-74
2023/02/16 05:05:16;;;;;;;45.53;26.00;;;4.20;76.80;;;;;;6246640;23;20399;-74
2023/02/16 05:07:42;;;;;;;48.03;25.23;;;4.20;76.80;;;;;;6246484;23;19996;-74
2023/02/16 05:10:08;;;;;;;43.93;25.33;;;4.30;76.80;;;;;;6246756;23;20300;-74
2023/02/16 05:15:18;;;;;;;47.03;26.17;;;4.20;77.00;;;;;;6246616;23;20488;-74
2023/02/16 05:17:44;;;;;;;45.57;26.13;;;4.20;77.30;;;;;;6246669;23;20082;-74
2023/02/16 05:20:10;;;;;;;40.97;26.20;;;4.20;77.20;;;;;;6246409;23;20004;-74
2023/02/16 05:22:38;;;;;;;45.17;26.33;;;4.20;77.30;;;;;;6246776;23;19997;-75
2023/02/16 05:25:05;;;;;;;43.00;26.33;;;4.20;77.30;;;;;;6246386;23;20423;-73
2023/02/16 05:27:31;;;;;;;44.37;27.67;;;4.20;77.70;;;;;;6246161;23;20000;-75
2023/02/16 05:29:57;;;;;;;45.93;28.00;;;4.20;77.90;;;;;;6246394;23;20098;-74
2023/02/16 05:32:24;;;;;;;44.30;26.20;;;4.20;77.50;;;;;;6246376;23;20411;-73
2023/02/16 05:34:49;;;;;;;43.20;26.97;;;4.20;77.60;;;;;;6246669;23;20000;-74
2023/02/16 05:37:16;;;;;;;44.03;26.77;;;4.20;77.80;;;;;;6246410;23;20000;-75
2023/02/16 05:39:43;;;;;;;55.33;27.97;;;4.20;78.10;;;;;;6246311;23;20015;-74
2023/02/16 05:42:10;;;;;;;55.37;29.73;;;4.10;78.00;;;;;;6246491;23;20008;-73
2023/02/16 05:44:36;;;;;;;51.00;28.03;;;4.20;78.20;;;;;;6246276;23;20442;-74
2023/02/16 05:47:01;;;;;;;50.17;28.67;;;4.20;78.30;;;;;;6245978;23;20000;-72
2023/02/16 05:49:27;;;;;;;50.40;28.70;;;4.10;78.50;;;;;;6246721;23;20410;-73
2023/02/16 05:51:53;;;;;;;47.97;28.23;;;4.20;78.60;;;;;;6246310;23;20088;-75
2023/02/16 05:54:18;;;;;;;47.97;27.83;;;4.20;79.40;;;;;;6246151;23;20374;-74
2023/02/16 05:56:46;;;;;;;44.80;27.07;;;4.20;78.70;;;;;;6246628;23;20046;-75
2023/02/16 05:59:13;;;;;;;48.60;27.10;;;4.20;78.80;;;;;;6245997;23;20015;-74
2023/02/16 06:01:39;;;;;;;46.67;27.97;;;4.20;78.60;;;;;;6246399;23;19999;-74
2023/02/16 06:04:13;;;;;;;44.17;26.80;;;4.20;78.70;;;;;;6246185;23;20011;-71
2023/02/16 06:06:39;;;;;;;46.83;27.27;;;4.20;78.70;;;;;;6246398;23;20312;-66
2023/02/16 06:09:07;;;;;;;55.23;27.37;;;4.20;78.90;;;;;;6245967;23;20058;-72
2023/02/16 06:11:35;;;;;;;55.57;28.53;;;4.20;78.70;;;;;;6246071;23;20431;-70
2023/02/16 06:14:13;;;;;;;78.93;29.23;;;4.20;78.80;;;;;;6245845;23;20007;-70
2023/02/16 06:16:40;;;;;;;47.87;25.53;;;4.20;78.60;;;;;;6245491;23;20457;-71
2023/02/16 06:19:07;;;;;;;68.57;28.40;;;4.20;79.00;;;;;;6245780;23;20012;-72
2023/02/16 06:21:34;;;;;;;50.33;26.50;;;4.20;79.00;;;;;;6245616;23;20008;-70
2023/02/16 06:23:59;;;;;;;54.37;27.80;;;4.20;79.30;;;;;;6246071;23;20016;-71
2023/02/16 06:26:25;;;;;;;52.50;25.83;;;4.20;79.10;;;;;;6246184;23;20000;-73
2023/02/16 06:28:51;;;;;;;51.20;27.13;;;4.20;79.20;;;;;;6245422;23;20004;-72
2023/02/16 06:31:17;;;;;;;52.60;27.03;;;4.20;79.30;;;;;;6246175;23;20030;-69
2023/02/16 06:33:43;;;;;;;54.10;25.73;;;4.20;79.40;;;;;;6245955;23;19996;-71
2023/02/16 06:36:09;;;;;;;55.23;26.73;;;4.20;79.60;;;;;;6219046;23;20427;-74
2023/02/16 06:38:35;;;;;;;54.30;28.20;;;4.20;79.70;;;;;;6245725;23;20007;-73
2023/02/16 06:41:00;;;;;;;57.07;27.87;;;4.30;79.80;;;;;;6245867;23;20053;-73
2023/02/16 06:43:26;;;;;;;48.70;26.80;;;4.30;80.00;;;;;;6245808;23;20331;-71
2023/02/16 06:45:52;;;;;;;54.63;27.97;;;4.30;79.90;;;;;;6246008;23;20004;-70
2023/02/16 06:48:17;;;;;;;58.13;31.50;;;4.30;79.90;;;;;;6245590;23;20019;-70
2023/02/16 06:50:43;;;;;;;59.93;31.40;;;4.30;80.20;;;;;;6245696;23;20381;-73
2023/02/16 06:53:09;;;;;;;65.40;28.90;;;4.30;80.40;;;;;;6245813;23;20022;-71
2023/02/16 06:55:35;;;;;;;54.97;25.67;;;4.30;80.80;;;;;;6245876;23;20004;-70
2023/02/16 06:58:05;;;;;;;47.43;24.60;;;4.40;80.70;;;;;;6245178;23;20339;-74
2023/02/16 07:00:32;;;;;;;40.93;22.60;;;4.40;80.80;;;;;;6244894;23;20000;-73
2023/02/16 07:22:25;;;;;;;44.93;22.27;;;4.80;81.20;;;;;;6222293;22;1501689;-64
2023/02/16 07:24:51;;;;;;;54.17;23.00;;;4.90;80.60;;;;;;6284522;22;20019;-64
2023/02/16 07:27:16;;;;;;;40.57;24.07;;;4.90;80.40;;;;;;6284083;22;19999;-62
2023/02/16 07:29:45;;;;;;;48.00;25.07;;;5.00;80.10;;;;;;6284390;22;20006;-64
2023/02/16 07:32:11;;;;;;;43.33;25.93;;;5.00;80.10;;;;;;6284594;22;20041;-63
2023/02/16 07:34:37;;;;;;;47.20;27.63;;;5.00;80.60;;;;;;6284386;22;20043;-65
2023/02/16 07:37:04;;;;;;;43.93;27.33;;;5.00;80.10;;;;;;6282061;22;20008;-64
2023/02/16 07:39:32;;;;;;;47.83;27.20;;;5.10;80.10;;;;;;6283806;22;20049;-68
2023/02/16 07:41:59;;;;;;;45.00;27.60;;;5.10;80.20;;;;;;6265680;22;20027;-65
2023/02/16 07:44:24;;;;;;;50.73;27.43;;;5.10;80.60;;;;;;6168524;23;20003;-63
2023/02/16 07:46:50;;;;;;;48.13;27.00;;;5.20;80.40;;;;;;6223035;23;20334;-63
2023/02/16 07:49:16;;;;;;;46.50;26.20;;;5.20;80.30;;;;;;6222506;23;20004;-63
2023/02/16 07:51:42;;;;;;;51.80;26.60;;;5.30;80.60;;;;;;6221303;23;20018;-63
2023/02/16 07:54:07;;;;;;;48.87;26.73;;;5.30;80.80;;;;;;6222956;23;20000;-63
2023/02/16 07:56:35;;;;;;;45.33;27.77;;;5.40;81.00;;;;;;6223217;23;20050;-68
2023/02/16 07:59:02;;;;;;;46.47;27.17;;;5.40;80.90;;;;;;6222806;23;20008;-63
2023/02/16 08:01:28;;;;;;;60.80;28.53;;;5.50;80.90;;;;;;6222962;23;20001;-66
2023/02/16 08:03:55;;;;;;;54.00;26.43;;;5.50;81.00;;;;;;6223108;23;20040;-64
2023/02/16 08:06:22;;;;;;;56.87;28.90;;;5.60;80.90;;;;;;6223315;23;20009;-63
2023/02/16 08:08:48;;;;;;;47.27;26.13;;;5.60;80.90;;;;;;6223464;23;20001;-63
2023/02/16 08:11:23;;;;;;;43.50;26.77;;;5.70;81.40;;;;;;6219917;23;20008;-63
2023/02/16 08:13:49;;;;;;;46.63;27.30;;;5.70;81.30;;;;;;6220275;23;20348;-64
2023/02/16 08:16:21;;;;;;;44.93;24.90;;;5.80;81.20;;;;;;6218285;23;20012;-65
2023/02/16 08:18:47;;;;;;;45.72;25.02;;;5.80;81.20;;;;;;6213441;23;20434;-63
2023/02/16 08:21:15;;;;;;;49.67;25.20;;;5.90;81.20;;;;;;6226677;23;20023;-64
2023/02/16 08:23:42;;;;;;;42.07;23.90;;;6.00;81.30;;;;;;6247205;23;20001;-66
2023/02/16 08:26:10;;;;;;;41.97;24.60;;;6.00;81.30;;;;;;6246963;23;20008;-64
2023/02/16 08:28:36;;;;;;;52.90;25.80;;;6.10;81.20;;;;;;6246749;23;20007;-64
2023/02/16 08:31:05;;;;;;;57.50;24.03;;;6.20;81.10;;;;;;6247361;23;20435;-63
2023/02/16 08:33:32;;;;;;;47.60;25.47;;;6.20;81.30;;;;;;6247418;23;20062;-63
2023/02/16 08:35:58;;;;;;;44.33;23.77;;;6.40;81.20;;;;;;6246843;23;20418;-63
2023/02/16 08:38:24;;;;;;;35.57;22.10;;;6.40;81.10;;;;;;6246767;23;20026;-64
2023/02/16 08:40:50;;;;;;;43.80;20.40;;;6.50;81.10;;;;;;6247078;23;20008;-64
2023/02/16 08:43:16;;;;;;;39.57;18.73;;;6.60;81.30;;;;;;6246840;23;19997;-64
2023/02/16 08:45:48;;;;;;;29.47;17.70;;;6.60;81.00;;;;;;6246612;23;20008;-64
2023/02/16 08:48:15;;;;;;;25.98;15.32;;;6.70;81.00;;;;;;6246938;23;20011;-64
2023/02/16 08:50:54;;;;;;;29.57;15.47;;;6.80;81.00;;;;;;6246747;23;20079;-64
2023/02/16 08:53:21;;;;;;;25.60;14.03;;;6.90;81.20;;;;;;6246388;23;20007;-65
2023/02/16 08:55:52;;;;;;;23.33;14.97;;;7.00;80.90;;;;;;6247032;23;20015;-64
2023/02/16 08:58:18;;;;;;;30.60;15.60;;;7.10;80.20;;;;;;6246994;23;20000;-64
2023/02/16 09:00:44;;;;;;;26.50;15.07;;;7.20;79.70;;;;;;6246688;23;20046;-64
2023/02/16 09:03:10;;;;;;;29.00;16.23;;;7.30;79.20;;;;;;6246132;23;20031;-64
2023/02/16 09:05:35;;;;;;;34.43;17.87;;;7.40;78.60;;;;;;6246822;23;20039;-64
2023/02/16 09:08:02;;;;;;;38.40;17.83;;;7.40;78.40;;;;;;6246236;23;20123;-64
2023/02/16 09:10:27;;;;;;;33.23;17.87;;;7.50;78.50;;;;;;6246373;23;20074;-64
2023/02/16 09:12:54;;;;;;;30.50;18.17;;;7.60;78.40;;;;;;6246363;23;20000;-64
2023/02/16 09:15:21;;;;;;;42.27;20.17;;;7.70;78.30;;;;;;6246582;23;20004;-64
2023/02/16 09:17:47;;;;;;;33.77;19.73;;;7.70;78.10;;;;;;6246456;23;20414;-64
2023/02/16 09:20:12;;;;;;;33.30;20.00;;;7.80;78.30;;;;;;6246612;23;20035;-64
2023/02/16 09:22:38;;;;;;;41.13;20.13;;;7.90;78.20;;;;;;6246221;23;20008;-64
2023/02/16 09:25:06;;;;;;;45.20;24.57;;;8.00;77.90;;;;;;6246358;23;20012;-63
2023/02/16 09:27:33;;;;;;;40.20;21.93;;;8.00;77.60;;;;;;6246658;23;20134;-63
2023/02/16 09:29:59;;;;;;;46.57;23.47;;;8.10;77.40;;;;;;6246020;23;20322;-64
2023/02/16 09:32:31;;;;;;;33.47;21.87;;;8.10;77.20;;;;;;6246183;23;19996;-63
2023/02/16 09:34:56;;;;;;;40.27;22.87;;;8.20;77.10;;;;;;6246196;23;19993;-64
2023/02/16 09:37:22;;;;;;;36.77;22.60;;;8.30;77.10;;;;;;6246219;23;20034;-64
2023/02/16 09:39:48;;;;;;;40.37;23.10;;;8.40;77.80;;;;;;6246321;23;20008;-64
2023/02/16 09:42:27;;;;;;;37.93;24.77;;;8.50;77.20;;;;;;6246620;23;19996;-64
2023/02/16 09:44:57;;;;;;;52.43;30.37;;;8.60;77.20;;;;;;6246131;23;20011;-64
2023/02/16 09:47:28;;;;;;;54.57;33.47;;;8.70;77.30;;;;;;6246147;23;20024;-63
2023/02/16 09:49:57;;;;;;;59.47;36.73;;;8.80;77.70;;;;;;6246031;23;20027;-64
2023/02/16 09:52:35;;;;;;;71.27;38.70;;;8.90;77.80;;;;;;6246092;23;20031;-63
2023/02/16 09:55:05;;;;;;;60.47;35.77;;;9.00;77.90;;;;;;6245994;23;20003;-64
2023/02/16 09:57:37;;;;;;;64.87;37.20;;;9.10;78.70;;;;;;6246009;23;20094;-64
2023/02/16 10:00:11;;;;;;;63.83;39.30;;;9.20;78.40;;;;;;6246208;23;20000;-64
2023/02/16 10:03:12;;;;;;;64.87;41.67;;;9.30;78.50;;;;;;6246111;23;20032;-64
2023/02/16 10:06:04;;;;;;;91.93;52.87;;;9.40;78.50;;;;;;6269315;22;20388;-64
2023/02/16 10:08:50;;;;;;;90.40;56.97;;;9.60;79.80;;;;;;6245812;23;20299;-64
2023/02/16 10:11:37;;;;;;;100.30;61.93;;;9.60;79.40;;;;;;6246152;23;20019;-64
2023/02/16 10:14:06;;;;;;;123.63;77.80;;;9.70;80.30;;;;;;6245716;23;20008;-64
2023/02/16 10:16:40;;;;;;;129.60;80.10;;;9.80;81.40;;;;;;6217936;23;20008;-65
2023/02/16 10:19:20;;;;;;;128.00;78.77;;;9.80;82.60;;;;;;6243535;23;20463;-64
2023/02/16 10:21:52;;;;;;;113.00;71.27;;;9.90;83.60;;;;;;6245533;23;20014;-64
2023/02/16 10:24:18;;;;;;;114.47;71.43;;;10.00;83.70;;;;;;6246059;23;20003;-64
2023/02/16 10:26:52;;;;;;;130.97;83.77;;;10.10;84.10;;;;;;6245881;23;20040;-65
2023/02/16 10:29:21;;;;;;;120.93;77.60;;;10.10;87.10;;;;;;6245758;23;20000;-64
2023/02/16 10:32:09;;;;;;;113.50;72.97;;;10.10;86.50;;;;;;6246197;23;20008;-64
2023/02/16 10:35:10;;;;;;;110.07;73.73;;;10.20;85.50;;;;;;6245812;23;20014;-64
2023/02/16 10:38:07;;;;;;;116.53;75.97;;;10.30;85.30;;;;;;6245694;23;20000;-64
2023/02/16 10:40:37;;;;;;;114.83;76.00;;;10.30;85.20;;;;;;6245708;23;20035;-64
2023/02/16 10:43:26;;;;;;;120.03;75.40;;;10.40;87.10;;;;;;6245685;23;20007;-64
2023/02/16 10:45:55;;;;;;;126.57;77.17;;;10.50;86.90;;;;;;6213784;23;20066;-63
2023/02/16 10:48:22;;;;;;;125.33;80.83;;;10.60;86.10;;;;;;6245904;23;20030;-64
2023/02/16 10:51:00;;;;;;;120.47;78.57;;;10.70;86.70;;;;;;6245899;23;20004;-63
2023/02/16 10:53:43;;;;;;;117.13;76.87;;;10.70;86.20;;;;;;6245649;23;20004;-63
2023/02/16 10:56:49;;;;;;;116.75;76.88;;;10.80;85.80;;;;;;6245678;23;20075;-63
2023/02/16 10:59:25;;;;;;;115.33;76.40;;;10.80;86.40;;;;;;6245291;23;20384;-63
2023/02/16 11:01:56;;;;;;;118.13;76.43;;;10.90;85.90;;;;;;6245719;23;20495;-63
2023/02/16 11:04:51;;;;;;;108.20;72.57;;;10.90;86.30;;;;;;6245772;23;20459;-63
2023/02/16 11:07:30;;;;;;;104.93;71.77;;;11.00;85.50;;;;;;6243782;23;20020;-64
2023/02/16 11:09:59;;;;;;;104.90;69.60;;;11.00;85.90;;;;;;6245852;23;20008;-63
2023/02/16 11:12:39;;;;;;;105.45;71.63;;;11.10;85.60;;;;;;6245511;23;20437;-64
2023/02/16 11:15:15;;;;;;;107.38;71.43;;;11.10;85.50;;;;;;6245451;23;20000;-64
2023/02/16 11:18:04;;;;;;;110.90;73.25;;;11.20;85.00;;;;;;6218647;23;20003;-64
2023/02/16 11:20:35;;;;;;;105.40;70.32;;;11.30;85.00;;;;;;6245221;23;20028;-64
2023/02/16 11:23:20;;;;;;;104.57;71.38;;;11.30;85.20;;;;;;6245082;23;20224;-64
2023/02/16 11:25:59;;;;;;;107.85;70.30;;;11.40;84.70;;;;;;6245146;23;20008;-64
2023/02/16 11:28:31;;;;;;;105.32;70.55;;;11.50;85.50;;;;;;6245825;23;20414;-64
2023/02/16 11:31:09;;;;;;;100.53;68.50;;;11.60;85.90;;;;;;6245379;23;20326;-64
2023/02/16 11:33:36;;;;;;;107.13;74.32;;;11.60;84.50;;;;;;6244918;23;20007;-64
2023/02/16 11:36:16;;;;;;;115.22;74.93;;;11.70;85.30;;;;;;6245193;23;20338;-64
2023/02/16 11:38:54;;;;;;;100.57;70.63;;;11.70;85.00;;;;;;6245221;23;20004;-64
2023/02/16 11:41:24;;;;;;;107.15;72.05;;;11.80;84.60;;;;;;6245216;23;20031;-64
2023/02/16 11:43:50;;;;;;;119.00;77.05;;;11.80;83.50;;;;;;6245153;23;20033;-63
2023/02/16 11:46:18;;;;;;;104.30;72.03;;;11.90;85.30;;;;;;6245176;23;20008;-65
2023/02/16 11:48:45;;;;;;;106.00;71.35;;;11.90;84.50;;;;;;6245407;23;20004;-64
2023/02/16 11:51:18;;;;;;;104.93;71.55;;;12.00;84.00;;;;;;6245594;23;20330;-64
2023/02/16 11:53:44;;;;;;;105.65;70.40;;;12.00;83.00;;;;;;6245251;23;20639;-64
2023/02/16 11:56:14;;;;;;;105.78;72.90;;;12.00;82.60;;;;;;6243965;23;20004;-64
2023/02/16 11:58:40;;;;;;;107.95;73.40;;;12.10;82.60;;;;;;6246062;23;20014;-64
2023/02/16 12:01:27;;;;;;;106.10;72.00;;;12.10;82.90;;;;;;6247614;23;20404;-64
2023/02/16 12:04:11;;;;;;;108.75;72.90;;;12.10;82.90;;;;;;6246683;23;20494;-64
2023/02/16 12:06:46;;;;;;;106.53;75.20;;;12.20;83.00;;;;;;6246367;23;20095;-63
2023/02/16 12:09:32;;;;;;;114.22;75.03;;;12.30;82.50;;;;;;6246475;23;20000;-63
2023/02/16 12:12:16;;;;;;;107.38;72.90;;;12.40;82.30;;;;;;6246746;23;20063;-63
2023/02/16 12:15:02;;;;;;;106.93;73.82;;;12.40;81.60;;;;;;6247101;23;20057;-63
2023/02/16 12:17:48;;;;;;;103.30;71.22;;;12.50;81.80;;;;;;6246807;23;20000;-64
2023/02/16 12:20:32;;;;;;;104.68;72.28;;;12.50;81.30;;;;;;6243637;23;20370;-64
2023/02/16 12:23:25;;;;;;;103.05;71.43;;;12.50;81.20;;;;;;6243829;23;20023;-65
2023/02/16 12:26:12;;;;;;;105.28;67.97;;;12.40;81.30;;;;;;6219284;23;20012;-65
2023/02/16 12:28:58;;;;;;;101.18;70.25;;;12.50;81.80;;;;;;6246597;23;20042;-65
2023/02/16 12:31:51;;;;;;;106.18;70.72;;;12.50;81.70;;;;;;6246611;23;20031;-64
2023/02/16 12:34:19;;;;;;;;;;;12.50;81.10;;;;;;6246703;23;20425;-65
2023/02/16 12:37:09;;;;;;;106.80;73.43;;;12.40;80.90;;;;;;6246730;23;19961;-65
2023/02/16 12:39:44;;;;;;;111.88;75.22;;;12.50;82.30;;;;;;6246812;23;20004;-65
2023/02/16 12:42:35;;;;;;;114.03;77.32;;;12.60;82.30;;;;;;6246511;23;20043;-64
2023/02/16 12:45:08;;;;;;;111.25;75.40;;;12.60;82.70;;;;;;6246807;23;20027;-65
2023/02/16 12:47:40;;;;;;;107.22;73.85;;;12.60;82.30;;;;;;6245763;23;20004;-65
2023/02/16 12:50:20;;;;;;;111.88;77.10;;;12.60;82.00;;;;;;6245006;23;20000;-65
2023/02/16 12:53:09;;;;;;;109.82;74.88;;;12.70;81.80;;;;;;6246586;23;20000;-65
2023/02/16 12:55:45;;;;;;;108.50;75.57;;;12.60;81.90;;;;;;6246409;23;20012;-64
2023/02/16 12:58:22;;;;;;;103.80;72.45;;;12.70;82.00;;;;;;6246501;23;20386;-64
2023/02/16 13:00:57;;;;;;;108.18;73.70;;;12.70;82.30;;;;;;6246330;23;20079;-64
2023/02/16 13:03:51;;;;;;;113.55;79.10;;;12.60;82.40;;;;;;6245870;23;20329;-64
2023/02/16 13:06:24;;;;;;;106.88;74.35;;;12.70;82.90;;;;;;6246669;23;20016;-64
2023/02/16 13:09:15;;;;;;;102.93;73.15;;;12.60;82.90;;;;;;6246117;23;20010;-64
2023/02/16 13:11:46;;;;;;;106.47;74.63;;;12.60;83.00;;;;;;6246114;23;20008;-65
2023/02/16 13:14:32;;;;;;;102.88;74.03;;;12.60;83.30;;;;;;6246430;23;20004;-65
2023/02/16 13:17:09;;;;;;;100.03;71.70;;;12.60;83.00;;;;;;6246494;23;20429;-65
2023/02/16 13:19:35;;;;;;;101.75;70.90;;;12.70;83.50;;;;;;6246114;23;20083;-64
2023/02/16 13:22:19;;;;;;;98.55;70.30;;;12.70;83.30;;;;;;6246417;23;20389;-63
2023/02/16 13:25:21;;;;;;;94.88;64.97;;;12.70;83.60;;;;;;6243043;23;20429;-64
2023/02/16 13:28:08;;;;;;;99.68;66.53;;;12.80;82.80;;;;;;6242797;23;20007;-64
2023/02/16 13:31:03;;;;;;;92.30;65.43;;;12.80;83.10;;;;;;6245552;23;20487;-65
2023/02/16 13:33:52;;;;;;;95.78;66.45;;;12.80;82.90;;;;;;6246378;23;19996;-65
2023/02/16 13:36:21;;;;;;;91.35;63.63;;;12.90;82.80;;;;;;6246420;23;20040;-65
2023/02/16 13:39:08;;;;;;;88.72;63.97;;;12.90;82.60;;;;;;6246449;23;20003;-65
2023/02/16 13:42:01;;;;;;;94.22;62.58;;;12.90;82.60;;;;;;6246093;23;20011;-64
2023/02/16 13:44:43;;;;;;;83.37;60.80;;;12.90;82.60;;;;;;6244059;23;20008;-64
2023/02/16 13:47:25;;;;;;;86.88;62.40;;;12.90;82.70;;;;;;6245062;23;20250;-65
2023/02/16 13:50:00;;;;;;;86.90;62.30;;;12.80;82.90;;;;;;6245148;23;20001;-65
2023/02/16 13:52:44;;;;;;;86.60;57.83;;;12.80;82.80;;;;;;6245535;23;20448;-65
2023/02/16 13:55:21;;;;;;;92.90;60.97;;;12.90;82.90;;;;;;6245401;23;20046;-66
2023/02/16 13:57:47;;;;;;;88.05;59.45;;;12.90;82.80;;;;;;6245343;23;20004;-66